GAP2205 RPLL-RPVR
Flight info
| Callsign | GAP2205 |
|---|---|
| Flight time | 0h 34m |
| Altitude | 29000 |
| Route | VERDE2R VERDE W24 TAPER TR18 KLO |
| Aircraft | A20N/M-SDE2E3FGHIRWXY/LB1 |
Departure
| Time | 2026-05-07 03:29 |
|---|---|
| Airport | Ninoy Aquino International Airport (RPLL) |
Arrival
| Time | 2026-05-07 04:03 |
|---|---|
| Airport | Roxas Airport (RPVR) |
| Time | Latitude | Longitude | Altitude | Speed | Heading |
|---|---|---|---|---|---|
| 2026-05-07 02:55 | 14.50900 | 121.01361 | 83 ft | 0 kts | 329° |
| 2026-05-07 03:16 | 14.50899 | 121.01362 | 84 ft | 1 kts | 329° |
| 2026-05-07 03:16 | 14.50886 | 121.01369 | 84 ft | 2 kts | 329° |
| 2026-05-07 03:16 | 14.50874 | 121.01377 | 84 ft | 2 kts | 329° |
| 2026-05-07 03:17 | 14.50861 | 121.01386 | 84 ft | 2 kts | 329° |
| 2026-05-07 03:17 | 14.50848 | 121.01393 | 84 ft | 2 kts | 329° |
| 2026-05-07 03:17 | 14.50835 | 121.01401 | 84 ft | 2 kts | 329° |
| 2026-05-07 03:17 | 14.50826 | 121.01406 | 84 ft | 2 kts | 330° |
| 2026-05-07 03:18 | 14.50817 | 121.01417 | 84 ft | 2 kts | 287° |
| 2026-05-07 03:18 | 14.50816 | 121.01433 | 84 ft | 2 kts | 252° |
| 2026-05-07 03:18 | 14.50819 | 121.01440 | 84 ft | 1 kts | 235° |
| 2026-05-07 03:18 | 14.50821 | 121.01444 | 84 ft | 0 kts | 240° |
| 2026-05-07 03:21 | 14.50820 | 121.01441 | 84 ft | 1 kts | 240° |
| 2026-05-07 03:21 | 14.50807 | 121.01418 | 84 ft | 4 kts | 240° |
| 2026-05-07 03:22 | 14.50790 | 121.01386 | 84 ft | 5 kts | 241° |
| 2026-05-07 03:22 | 14.50770 | 121.01348 | 84 ft | 6 kts | 242° |
| 2026-05-07 03:22 | 14.50737 | 121.01317 | 84 ft | 7 kts | 195° |
| 2026-05-07 03:22 | 14.50684 | 121.01318 | 84 ft | 7 kts | 189° |
| 2026-05-07 03:23 | 14.50646 | 121.01278 | 84 ft | 8 kts | 242° |
| 2026-05-07 03:23 | 14.50616 | 121.01221 | 84 ft | 9 kts | 240° |
| 2026-05-07 03:23 | 14.50583 | 121.01160 | 84 ft | 10 kts | 240° |
| 2026-05-07 03:23 | 14.50545 | 121.01095 | 84 ft | 10 kts | 241° |
| 2026-05-07 03:24 | 14.50506 | 121.01025 | 84 ft | 11 kts | 240° |
| 2026-05-07 03:24 | 14.50465 | 121.00951 | 84 ft | 12 kts | 240° |
| 2026-05-07 03:24 | 14.50422 | 121.00873 | 84 ft | 12 kts | 240° |
| 2026-05-07 03:24 | 14.50377 | 121.00792 | 84 ft | 13 kts | 240° |
| 2026-05-07 03:25 | 14.50331 | 121.00709 | 84 ft | 13 kts | 240° |
| 2026-05-07 03:25 | 14.50283 | 121.00624 | 84 ft | 13 kts | 240° |
| 2026-05-07 03:25 | 14.50234 | 121.00535 | 84 ft | 14 kts | 240° |
| 2026-05-07 03:25 | 14.50184 | 121.00446 | 84 ft | 14 kts | 240° |
| 2026-05-07 03:26 | 14.50134 | 121.00353 | 84 ft | 14 kts | 240° |
| 2026-05-07 03:26 | 14.50081 | 121.00261 | 84 ft | 15 kts | 239° |
| 2026-05-07 03:26 | 14.50029 | 121.00167 | 84 ft | 15 kts | 240° |
| 2026-05-07 03:26 | 14.49977 | 121.00073 | 84 ft | 15 kts | 240° |
| 2026-05-07 03:27 | 14.49932 | 120.99992 | 84 ft | 9 kts | 239° |
| 2026-05-07 03:27 | 14.49896 | 120.99961 | 84 ft | 7 kts | 188° |
| 2026-05-07 03:27 | 14.49848 | 120.99981 | 84 ft | 7 kts | 146° |
| 2026-05-07 03:27 | 14.49806 | 121.00021 | 84 ft | 8 kts | 114° |
| 2026-05-07 03:28 | 14.49825 | 121.00085 | 84 ft | 14 kts | 59° |
| 2026-05-07 03:28 | 14.49959 | 121.00328 | 84 ft | 71 kts | 61° |
| 2026-05-07 03:28 | 14.50314 | 121.00965 | 84 ft | 130 kts | 61° |
| 2026-05-07 03:28 | 14.50860 | 121.01909 | 213 ft | 165 kts | 60° |
| 2026-05-07 03:29 | 14.51448 | 121.02917 | 754 ft | 165 kts | 61° |
| 2026-05-07 03:29 | 14.52002 | 121.03949 | 1347 ft | 168 kts | 63° |
| 2026-05-07 03:29 | 14.52561 | 121.04992 | 1923 ft | 169 kts | 61° |
| 2026-05-07 03:29 | 14.53155 | 121.06087 | 2221 ft | 182 kts | 60° |
| 2026-05-07 03:30 | 14.53804 | 121.07269 | 2508 ft | 196 kts | 59° |
| 2026-05-07 03:30 | 14.54510 | 121.08534 | 2721 ft | 217 kts | 60° |
| 2026-05-07 03:30 | 14.55290 | 121.09940 | 3062 ft | 233 kts | 60° |
| 2026-05-07 03:30 | 14.56065 | 121.11468 | 3389 ft | 252 kts | 70° |
| 2026-05-07 03:31 | 14.56241 | 121.13319 | 3839 ft | 266 kts | 98° |
| 2026-05-07 03:31 | 14.55560 | 121.15093 | 4483 ft | 276 kts | 123° |
| 2026-05-07 03:31 | 14.54264 | 121.16567 | 5208 ft | 280 kts | 133° |
| 2026-05-07 03:31 | 14.52878 | 121.17966 | 5911 ft | 284 kts | 133° |
| 2026-05-07 03:32 | 14.51451 | 121.19408 | 6657 ft | 288 kts | 133° |
| 2026-05-07 03:32 | 14.50027 | 121.20866 | 7303 ft | 295 kts | 133° |
| 2026-05-07 03:32 | 14.48567 | 121.22362 | 8022 ft | 300 kts | 137° |
| 2026-05-07 03:32 | 14.46793 | 121.23459 | 8689 ft | 308 kts | 163° |
| 2026-05-07 03:33 | 14.44670 | 121.23636 | 9426 ft | 309 kts | 192° |
| 2026-05-07 03:33 | 14.42703 | 121.22826 | 10165 ft | 306 kts | 219° |
| 2026-05-07 03:33 | 14.41169 | 121.21307 | 10710 ft | 312 kts | 231° |
| 2026-05-07 03:33 | 14.39639 | 121.19676 | 11018 ft | 333 kts | 220° |
| 2026-05-07 03:34 | 14.37505 | 121.18649 | 11332 ft | 355 kts | 195° |
| 2026-05-07 03:34 | 14.35071 | 121.18261 | 11954 ft | 362 kts | 189° |
| 2026-05-07 03:34 | 14.32565 | 121.17979 | 12685 ft | 363 kts | 189° |
| 2026-05-07 03:34 | 14.30060 | 121.17658 | 13398 ft | 365 kts | 190° |
| 2026-05-07 03:35 | 14.27564 | 121.17286 | 14098 ft | 367 kts | 191° |
| 2026-05-07 03:35 | 14.25063 | 121.16876 | 14787 ft | 369 kts | 192° |
| 2026-05-07 03:35 | 14.22534 | 121.16437 | 15470 ft | 371 kts | 192° |
| 2026-05-07 03:35 | 14.20020 | 121.15987 | 16135 ft | 373 kts | 192° |
| 2026-05-07 03:36 | 14.17478 | 121.15525 | 16853 ft | 373 kts | 192° |
| 2026-05-07 03:36 | 14.14949 | 121.15062 | 17533 ft | 374 kts | 192° |
| 2026-05-07 03:36 | 14.12360 | 121.14584 | 18179 ft | 377 kts | 192° |
| 2026-05-07 03:36 | 14.09789 | 121.14110 | 18799 ft | 379 kts | 192° |
| 2026-05-07 03:37 | 14.07212 | 121.13633 | 19406 ft | 382 kts | 191° |
| 2026-05-07 03:37 | 14.04616 | 121.13153 | 20002 ft | 384 kts | 191° |
| 2026-05-07 03:37 | 14.01973 | 121.12664 | 20595 ft | 387 kts | 191° |
| 2026-05-07 03:37 | 13.99318 | 121.12173 | 21157 ft | 390 kts | 191° |
| 2026-05-07 03:38 | 13.96656 | 121.11681 | 21545 ft | 398 kts | 191° |
| 2026-05-07 03:38 | 13.93932 | 121.11177 | 22006 ft | 403 kts | 191° |
| 2026-05-07 03:38 | 13.91142 | 121.10661 | 22552 ft | 406 kts | 191° |
| 2026-05-07 03:38 | 13.88361 | 121.10144 | 23016 ft | 411 kts | 189° |
| 2026-05-07 03:39 | 13.85535 | 121.09621 | 23225 ft | 423 kts | 189° |
| 2026-05-07 03:39 | 13.82599 | 121.09081 | 23517 ft | 432 kts | 189° |
| 2026-05-07 03:39 | 13.79666 | 121.08543 | 23972 ft | 435 kts | 189° |
| 2026-05-07 03:39 | 13.76696 | 121.07996 | 24475 ft | 437 kts | 189° |
| 2026-05-07 03:40 | 13.73680 | 121.07441 | 24959 ft | 440 kts | 189° |
| 2026-05-07 03:40 | 13.70699 | 121.06892 | 25417 ft | 442 kts | 189° |
| 2026-05-07 03:40 | 13.67708 | 121.06342 | 25990 ft | 441 kts | 189° |
| 2026-05-07 03:40 | 13.64720 | 121.05792 | 26631 ft | 438 kts | 189° |
| 2026-05-07 03:41 | 13.61706 | 121.05238 | 27243 ft | 435 kts | 189° |
| 2026-05-07 03:41 | 13.58781 | 121.04700 | 27741 ft | 435 kts | 189° |
| 2026-05-07 03:41 | 13.55789 | 121.04150 | 28173 ft | 437 kts | 189° |
| 2026-05-07 03:41 | 13.52808 | 121.03835 | 28549 ft | 437 kts | 178° |
| 2026-05-07 03:42 | 13.49793 | 121.04274 | 28851 ft | 437 kts | 163° |
| 2026-05-07 03:42 | 13.47010 | 121.05463 | 28888 ft | 435 kts | 148° |
| 2026-05-07 03:42 | 13.36883 | 121.12636 | 28912 ft | 434 kts | 146° |
| 2026-05-07 03:43 | 12.35042 | 121.83976 | 28910 ft | 440 kts | 143° |
| 2026-05-07 03:43 | 12.30229 | 121.87872 | 28653 ft | 446 kts | 142° |
| 2026-05-07 03:43 | 12.27780 | 121.89867 | 27841 ft | 450 kts | 142° |
| 2026-05-07 03:44 | 12.25338 | 121.91854 | 27055 ft | 450 kts | 142° |
| 2026-05-07 03:44 | 12.22900 | 121.93837 | 26405 ft | 447 kts | 142° |
| 2026-05-07 03:44 | 12.20517 | 121.95773 | 25808 ft | 443 kts | 142° |
| 2026-05-07 03:44 | 12.18109 | 121.97729 | 25201 ft | 439 kts | 142° |
| 2026-05-07 03:45 | 12.15748 | 121.99644 | 24468 ft | 440 kts | 142° |
| 2026-05-07 03:45 | 12.13350 | 122.01588 | 23396 ft | 447 kts | 142° |
| 2026-05-07 03:45 | 12.10906 | 122.03567 | 22367 ft | 452 kts | 142° |
| 2026-05-07 03:45 | 12.08466 | 122.05544 | 21627 ft | 449 kts | 142° |
| 2026-05-07 03:46 | 12.06020 | 122.07536 | 20968 ft | 445 kts | 142° |
| 2026-05-07 03:46 | 12.03635 | 122.09486 | 20302 ft | 441 kts | 142° |
| 2026-05-07 03:46 | 12.01280 | 122.11414 | 19629 ft | 437 kts | 142° |
| 2026-05-07 03:46 | 11.98912 | 122.13353 | 18948 ft | 433 kts | 142° |
| 2026-05-07 03:47 | 11.96580 | 122.15262 | 18274 ft | 429 kts | 142° |
| 2026-05-07 03:47 | 11.94299 | 122.17129 | 17612 ft | 425 kts | 142° |
| 2026-05-07 03:47 | 11.91997 | 122.19012 | 16942 ft | 422 kts | 142° |
| 2026-05-07 03:47 | 11.89740 | 122.20857 | 16282 ft | 418 kts | 142° |
| 2026-05-07 03:48 | 11.87478 | 122.22697 | 15619 ft | 415 kts | 143° |
| 2026-05-07 03:48 | 11.85240 | 122.24515 | 14960 ft | 411 kts | 143° |
| 2026-05-07 03:48 | 11.83034 | 122.26311 | 14307 ft | 408 kts | 143° |
| 2026-05-07 03:48 | 11.80841 | 122.28100 | 13656 ft | 404 kts | 142° |
| 2026-05-07 03:49 | 11.78666 | 122.29876 | 13009 ft | 401 kts | 142° |
| 2026-05-07 03:49 | 11.76485 | 122.31659 | 12359 ft | 398 kts | 142° |
| 2026-05-07 03:49 | 11.74358 | 122.33398 | 11725 ft | 395 kts | 142° |
| 2026-05-07 03:49 | 11.72223 | 122.35141 | 11072 ft | 392 kts | 142° |
| 2026-05-07 03:50 | 11.70124 | 122.36853 | 10419 ft | 390 kts | 142° |
| 2026-05-07 03:50 | 11.68004 | 122.38582 | 9750 ft | 388 kts | 142° |
| 2026-05-07 03:50 | 11.65919 | 122.40263 | 9103 ft | 385 kts | 142° |
| 2026-05-07 03:50 | 11.63834 | 122.41939 | 8472 ft | 382 kts | 142° |
| 2026-05-07 03:51 | 11.61759 | 122.43588 | 7946 ft | 369 kts | 142° |
| 2026-05-07 03:51 | 11.59805 | 122.45130 | 7390 ft | 346 kts | 142° |
| 2026-05-07 03:51 | 11.57953 | 122.46580 | 6839 ft | 327 kts | 142° |
| 2026-05-07 03:51 | 11.56200 | 122.47932 | 6383 ft | 308 kts | 142° |
| 2026-05-07 03:52 | 11.54553 | 122.49193 | 6000 ft | 291 kts | 142° |
| 2026-05-07 03:52 | 11.52982 | 122.50399 | 5682 ft | 274 kts | 142° |
| 2026-05-07 03:52 | 11.51491 | 122.51532 | 5289 ft | 263 kts | 142° |
| 2026-05-07 03:52 | 11.50044 | 122.52605 | 5055 ft | 255 kts | 143° |
| 2026-05-07 03:53 | 11.48626 | 122.53661 | 4887 ft | 247 kts | 142° |
| 2026-05-07 03:53 | 11.47266 | 122.54665 | 4723 ft | 239 kts | 143° |
| 2026-05-07 03:53 | 11.45957 | 122.55631 | 4565 ft | 231 kts | 142° |
| 2026-05-07 03:53 | 11.44675 | 122.56568 | 4405 ft | 223 kts | 143° |
| 2026-05-07 03:54 | 11.43430 | 122.57484 | 4160 ft | 220 kts | 143° |
| 2026-05-07 03:54 | 11.42188 | 122.58392 | 3894 ft | 218 kts | 142° |
| 2026-05-07 03:54 | 11.40951 | 122.59283 | 3632 ft | 217 kts | 142° |
| 2026-05-07 03:54 | 11.39730 | 122.60156 | 3363 ft | 215 kts | 141° |
| 2026-05-07 03:55 | 11.38791 | 122.61272 | 3217 ft | 201 kts | 105° |
| 2026-05-07 03:55 | 11.38807 | 122.62588 | 3113 ft | 179 kts | 66° |
| 2026-05-07 03:55 | 11.39402 | 122.63631 | 2985 ft | 165 kts | 52° |
| 2026-05-07 03:55 | 11.40048 | 122.64552 | 2825 ft | 154 kts | 51° |
| 2026-05-07 03:56 | 11.40650 | 122.65427 | 2694 ft | 151 kts | 52° |
| 2026-05-07 03:56 | 11.41237 | 122.66324 | 2575 ft | 151 kts | 54° |
| 2026-05-07 03:56 | 11.41804 | 122.67215 | 2451 ft | 149 kts | 55° |
| 2026-05-07 03:56 | 11.42359 | 122.68101 | 2320 ft | 148 kts | 55° |
| 2026-05-07 03:57 | 11.42908 | 122.69000 | 2194 ft | 150 kts | 55° |
| 2026-05-07 03:57 | 11.43459 | 122.69897 | 2076 ft | 149 kts | 56° |
| 2026-05-07 03:57 | 11.44005 | 122.70787 | 1987 ft | 147 kts | 55° |
| 2026-05-07 03:57 | 11.44552 | 122.71677 | 2003 ft | 148 kts | 57° |
| 2026-05-07 03:58 | 11.45091 | 122.72561 | 1988 ft | 147 kts | 56° |
| 2026-05-07 03:58 | 11.45633 | 122.73456 | 1984 ft | 147 kts | 56° |
| 2026-05-07 03:58 | 11.46172 | 122.74346 | 2001 ft | 149 kts | 55° |
| 2026-05-07 03:58 | 11.46718 | 122.75242 | 1993 ft | 149 kts | 55° |
| 2026-05-07 03:59 | 11.47264 | 122.76131 | 1984 ft | 148 kts | 56° |
| 2026-05-07 03:59 | 11.47812 | 122.77033 | 1986 ft | 149 kts | 55° |
| 2026-05-07 03:59 | 11.48363 | 122.77934 | 1984 ft | 148 kts | 56° |
| 2026-05-07 03:59 | 11.48908 | 122.78817 | 1990 ft | 147 kts | 57° |
| 2026-05-07 04:00 | 11.49442 | 122.79700 | 1975 ft | 148 kts | 56° |
| 2026-05-07 04:00 | 11.49989 | 122.80600 | 1985 ft | 148 kts | 55° |
| 2026-05-07 04:00 | 11.50704 | 122.81312 | 1905 ft | 146 kts | 20° |
| 2026-05-07 04:00 | 11.51689 | 122.81235 | 1759 ft | 146 kts | 335° |
| 2026-05-07 04:01 | 11.52528 | 122.80669 | 1598 ft | 143 kts | 328° |
| 2026-05-07 04:01 | 11.53323 | 122.80088 | 1412 ft | 141 kts | 327° |
| 2026-05-07 04:01 | 11.54128 | 122.79504 | 1239 ft | 141 kts | 327° |
| 2026-05-07 04:01 | 11.54924 | 122.78934 | 1048 ft | 141 kts | 328° |
| 2026-05-07 04:02 | 11.55695 | 122.78310 | 805 ft | 140 kts | 321° |
| 2026-05-07 04:02 | 11.56459 | 122.77695 | 642 ft | 140 kts | 324° |
| 2026-05-07 04:02 | 11.57244 | 122.77110 | 506 ft | 140 kts | 329° |
| 2026-05-07 04:02 | 11.58032 | 122.76543 | 316 ft | 139 kts | 328° |
| 2026-05-07 04:03 | 11.58815 | 122.75974 | 131 ft | 138 kts | 329° |
| 2026-05-07 04:03 | 11.59583 | 122.75429 | 20 ft | 124 kts | 325° |
| 2026-05-07 04:03 | 11.60088 | 122.75070 | 18 ft | 64 kts | 326° |
| 2026-05-07 04:03 | 11.60334 | 122.74894 | 18 ft | 17 kts | 324° |
| 2026-05-07 04:04 | 11.60376 | 122.74857 | 18 ft | 6 kts | 303° |
| 2026-05-07 04:04 | 11.60383 | 122.74862 | 18 ft | 5 kts | 135° |
| 2026-05-07 04:04 | 11.60349 | 122.74886 | 18 ft | 6 kts | 147° |
| 2026-05-07 04:04 | 11.60310 | 122.74913 | 18 ft | 7 kts | 146° |
| 2026-05-07 04:05 | 11.60263 | 122.74937 | 18 ft | 8 kts | 168° |
| 2026-05-07 04:05 | 11.60204 | 122.74931 | 18 ft | 9 kts | 191° |
| 2026-05-07 04:05 | 11.60175 | 122.74925 | 18 ft | 0 kts | 191° |
| 2026-05-07 04:05 | 11.60167 | 122.74924 | 18 ft | 1 kts | 191° |
| 2026-05-07 04:06 | 11.60153 | 122.74925 | 18 ft | 2 kts | 155° |
| 2026-05-07 04:06 | 11.60142 | 122.74931 | 18 ft | 1 kts | 148° |
| 2026-05-07 04:06 | 11.60134 | 122.74933 | 18 ft | 1 kts | 194° |
| 2026-05-07 04:06 | 11.60131 | 122.74923 | 18 ft | 2 kts | 266° |
| 2026-05-07 04:07 | 11.60130 | 122.74906 | 18 ft | 0 kts | 266° |
| 2026-05-07 04:07 | 11.60130 | 122.74900 | 18 ft | 1 kts | 266° |
| 2026-05-07 04:07 | 11.60130 | 122.74897 | 18 ft | 0 kts | 266° |